Station Historical Data
Daily Summary for May 31, 2017 Units:  English    Metric   Both
Next Day »
Daily Weekly Monthly Yearly Custom
  High: Low: Average:
Temperature: 65.6 °F 51.2 °F 58.9 °F
Dew Point: 57.4 °F 44.6 °F 51.8 °F
Humidity: 88% 62% 78%
Wind Speed: 11.0mph 0.0mph 1.3mph
Wind Gust: 13.0mph - -
Wind- - SSE
Pressure: 29.93 in 29.83 in -
Precipitation: 0.00 in    
Historical Graphs
 
 
Tabular Data for May 31, 2017
Time Temperature Dew Point Pressure Wind Wind Speed Wind Gust Humidity Rainfall Rate (Hourly) solar Conditions
00:06 60.2 °F 50.0 °F 29.84 in SE 2.0 mph 4.0 mph 69% 0.00 in 0.00 W/m2
00:11 60.2 °F 50.0 °F 29.84 in SE 4.0 mph 5.0 mph 69% 0.00 in 0.00 W/m2
00:16 60.2 °F 50.0 °F 29.84 in SE 7.0 mph 7.0 mph 69% 0.00 in 0.00 W/m2
00:21 60.1 °F 49.9 °F 29.83 in SE 9.0 mph 12.0 mph 69% 0.00 in 0.00 W/m2
00:26 60.0 °F 49.4 °F 29.84 in SE 2.0 mph 8.0 mph 68% 0.00 in 0.00 W/m2
00:31 60.0 °F 49.4 °F 29.84 in SE 5.0 mph 5.0 mph 68% 0.00 in 0.00 W/m2
00:36 59.9 °F 48.9 °F 29.83 in SE 11.0 mph 11.0 mph 67% 0.00 in 0.00 W/m2
00:37 59.9 °F 48.9 °F 29.83 in SE 9.0 mph 11.0 mph 67% 0.00 in 0.00 W/m2
00:42 59.9 °F 48.5 °F 29.83 in SE 6.0 mph 9.0 mph 66% 0.00 in 0.00 W/m2
00:47 59.8 °F 48.0 °F 29.83 in SE 10.0 mph 10.0 mph 65% 0.00 in 0.00 W/m2
00:52 59.8 °F 48.4 °F 29.83 in SE 4.0 mph 9.0 mph 66% 0.00 in 0.00 W/m2
00:57 59.7 °F 47.9 °F 29.83 in SE 4.0 mph 8.0 mph 65% 0.00 in 0.00 W/m2
01:02 59.7 °F 47.9 °F 29.83 in SE 6.0 mph 8.0 mph 65% 0.00 in 0.00 W/m2
01:07 59.6 °F 47.4 °F 29.83 in SSE 6.0 mph 8.0 mph 64% 0.00 in 0.00 W/m2
01:12 59.6 °F 46.6 °F 29.83 in SE 4.0 mph 9.0 mph 62% 0.00 in 0.00 W/m2
01:17 59.6 °F 47.0 °F 29.83 in SE 6.0 mph 8.0 mph 63% 0.00 in 0.00 W/m2
01:22 59.7 °F 46.7 °F 29.83 in SSE 2.0 mph 9.0 mph 62% 0.00 in 0.00 W/m2
01:27 59.7 °F 46.7 °F 29.83 in SSE 6.0 mph 7.0 mph 62% 0.00 in 0.00 W/m2
01:32 59.8 °F 46.8 °F 29.83 in SSE 5.0 mph 7.0 mph 62% 0.00 in 0.00 W/m2
01:37 59.8 °F 46.8 °F 29.83 in SSE 2.0 mph 6.0 mph 62% 0.00 in 0.00 W/m2
01:42 59.8 °F 46.8 °F 29.83 in SSE 1.0 mph 8.0 mph 62% 0.00 in 0.00 W/m2
01:47 59.8 °F 46.8 °F 29.83 in Calm   6.0 mph 62% 0.00 in 0.00 W/m2
01:52 59.9 °F 46.9 °F 29.83 in SSE 4.0 mph 7.0 mph 62% 0.00 in 0.00 W/m2
01:57 59.9 °F 46.9 °F 29.83 in Calm   7.0 mph 62% 0.00 in 0.00 W/m2
02:02 59.9 °F 46.9 °F 29.83 in Calm     62% 0.00 in 0.00 W/m2
02:07 59.9 °F 46.9 °F 29.83 in Calm   6.0 mph 62% 0.00 in 0.00 W/m2
02:12 59.9 °F 47.3 °F 29.83 in Calm   4.0 mph 63% 0.00 in 0.00 W/m2
02:13 59.9 °F 47.3 °F 29.83 in Calm   4.0 mph 63% 0.00 in 0.00 W/m2
02:18 59.9 °F 47.3 °F 29.83 in Calm     63% 0.00 in 0.00 W/m2
02:23 59.8 °F 47.2 °F 29.83 in Calm     63% 0.00 in 0.00 W/m2
02:24 59.8 °F 47.2 °F 29.83 in Calm     63% 0.00 in 0.00 W/m2
02:29 59.8 °F 47.2 °F 29.83 in Calm     63% 0.00 in 0.00 W/m2
02:34 59.7 °F 47.5 °F 29.83 in Calm     64% 0.00 in 0.00 W/m2
02:44 59.5 °F 47.3 °F 29.83 in Calm     64% 0.00 in 0.00 W/m2
02:49 59.4 °F 47.7 °F 29.83 in Calm     65% 0.00 in 0.00 W/m2
02:54 59.2 °F 47.5 °F 29.83 in Calm     65% 0.00 in 0.00 W/m2
02:59 59.1 °F 47.0 °F 29.83 in SSE 5.0 mph 6.0 mph 64% 0.00 in 0.00 W/m2
03:04 58.9 °F 46.8 °F 29.83 in SSE 5.0 mph 7.0 mph 64% 0.00 in 0.00 W/m2
03:09 58.6 °F 46.1 °F 29.83 in South 2.0 mph 6.0 mph 63% 0.00 in 0.00 W/m2
03:14 58.4 °F 45.9 °F 29.83 in South 1.0 mph 8.0 mph 63% 0.00 in 0.00 W/m2
03:19 58.1 °F 45.6 °F 29.83 in South 2.0 mph 8.0 mph 63% 0.00 in 0.00 W/m2
03:24 57.8 °F 45.7 °F 29.83 in South 1.0 mph 7.0 mph 64% 0.00 in 0.00 W/m2
03:27 57.6 °F 45.5 °F 29.83 in South 2.0 mph 4.0 mph 64% 0.00 in 0.00 W/m2
03:29 57.5 °F 45.4 °F 29.84 in South 2.0 mph 4.0 mph 64% 0.00 in 0.00 W/m2
03:34 57.1 °F 45.5 °F 29.83 in Calm   7.0 mph 65% 0.00 in 0.00 W/m2
03:39 56.8 °F 45.2 °F 29.84 in South 4.0 mph 6.0 mph 65% 0.00 in 0.00 W/m2
03:44 56.5 °F 45.3 °F 29.84 in South 2.0 mph 7.0 mph 66% 0.00 in 0.00 W/m2
03:49 56.2 °F 45.0 °F 29.84 in SSE 1.0 mph 8.0 mph 66% 0.00 in 0.00 W/m2
03:54 55.9 °F 45.1 °F 29.84 in SSE 1.0 mph 9.0 mph 67% 0.00 in 0.00 W/m2
03:59 55.7 °F 44.9 °F 29.84 in SSE 2.0 mph 9.0 mph 67% 0.00 in 0.00 W/m2
04:04 55.5 °F 44.7 °F 29.83 in SSE 5.0 mph 8.0 mph 67% 0.00 in 0.00 W/m2
04:09 55.4 °F 44.6 °F 29.84 in SSE 8.0 mph 9.0 mph 67% 0.00 in 0.00 W/m2
04:14 55.3 °F 44.9 °F 29.84 in SSE 6.0 mph 6.0 mph 68% 0.00 in 0.00 W/m2
04:19 55.1 °F 44.7 °F 29.84 in SE 1.0 mph 6.0 mph 68% 0.00 in 0.00 W/m2
04:24 55.1 °F 44.7 °F 29.83 in Calm   6.0 mph 68% 0.00 in 0.00 W/m2
04:29 55.0 °F 44.7 °F 29.83 in SE 2.0 mph 8.0 mph 68% 0.00 in 0.00 W/m2
04:34 54.9 °F 44.9 °F 29.84 in SE 4.0 mph 7.0 mph 69% 0.00 in 0.00 W/m2
04:39 54.8 °F 44.8 °F 29.83 in SE 4.0 mph 5.0 mph 69% 0.00 in 0.00 W/m2
04:44 54.8 °F 45.2 °F 29.84 in SE 2.0 mph 6.0 mph 70% 0.00 in 0.00 W/m2
04:49 54.8 °F 44.8 °F 29.84 in SE 1.0 mph 9.0 mph 69% 0.00 in 0.00 W/m2
04:54 54.8 °F 44.8 °F 29.84 in SE 1.0 mph 8.0 mph 69% 0.00 in 0.00 W/m2
04:59 54.8 °F 45.2 °F 29.84 in Calm   8.0 mph 70% 0.00 in 0.00 W/m2
05:04 54.8 °F 44.8 °F 29.85 in SSE 1.0 mph 9.0 mph 69% 0.00 in 0.00 W/m2
05:09 54.8 °F 44.8 °F 29.84 in SSE 1.0 mph 5.0 mph 69% 0.00 in 0.00 W/m2
05:14 54.9 °F 44.9 °F 29.85 in SSE 2.0 mph 6.0 mph 69% 0.00 in 0.00 W/m2
05:19 54.9 °F 44.9 °F 29.85 in Calm   5.0 mph 69% 0.00 in 0.00 W/m2
05:24 54.9 °F 44.9 °F 29.85 in SSE 4.0 mph 8.0 mph 69% 0.00 in 0.00 W/m2
05:29 55.0 °F 45.4 °F 29.85 in SSE 2.0 mph 6.0 mph 70% 0.00 in 0.00 W/m2
05:34 54.9 °F 46.4 °F 29.87 in SSE 4.0 mph 13.0 mph 73% 0.00 in 0.00 W/m2
05:39 54.8 °F 47.0 °F 29.85 in Calm   5.0 mph 75% 0.00 in 0.00 W/m2
05:44 54.5 °F 47.8 °F 29.85 in Calm   6.0 mph 78% 0.00 in 0.00 W/m2
05:49 54.1 °F 47.7 °F 29.84 in Calm   5.0 mph 79% 0.00 in 0.00 W/m2
05:54 53.7 °F 48.0 °F 29.85 in Calm     81% 0.00 in 0.00 W/m2
05:59 53.4 °F 48.0 °F 29.85 in Calm     82% 0.05 in 5.00 W/m2
06:04 53.2 °F 48.2 °F 29.86 in Calm   2.0 mph 83% 0.05 in 7.00 W/m2
06:09 53.1 °F 48.4 °F 29.86 in Calm   6.0 mph 84% 0.05 in 7.00 W/m2
06:14 52.9 °F 48.2 °F 29.86 in Calm   6.0 mph 84% 0.04 in 9.00 W/m2
06:19 52.5 °F 47.8 °F 29.86 in Calm     84% 0.04 in 9.00 W/m2
06:24 52.3 °F 47.9 °F 29.87 in Calm   2.0 mph 85% 0.04 in 11.00 W/m2
06:29 52.2 °F 47.8 °F 29.86 in Calm   2.0 mph 85% 0.04 in 12.00 W/m2
06:34 52.0 °F 47.6 °F 29.87 in Calm   5.0 mph 85% 0.10 in 16.00 W/m2
06:39 51.9 °F 47.8 °F 29.87 in South 4.0 mph 5.0 mph 86% 0.10 in 16.00 W/m2
06:44 51.7 °F 47.7 °F 29.87 in South 1.0 mph 4.0 mph 86% 0.07 in 14.00 W/m2
06:50 51.5 °F 47.5 °F 29.86 in Calm   2.0 mph 86% 0.07 in 14.00 W/m2
06:55 51.3 °F 47.3 °F 29.87 in Calm     86% 0.05 in 19.00 W/m2
07:00 51.2 °F 47.2 °F 29.87 in Calm   1.0 mph 86% 0.05 in 25.00 W/m2
07:05 51.2 °F 47.5 °F 29.87 in Calm     87% 0.05 in 26.00 W/m2
07:10 51.2 °F 47.5 °F 29.88 in Calm     87% 0.05 in 32.00 W/m2
07:15 51.2 °F 47.5 °F 29.88 in Calm     87% 0.05 in 32.00 W/m2
07:20 51.2 °F 47.5 °F 29.88 in Calm   4.0 mph 87% 0.05 in 28.00 W/m2
07:25 51.2 °F 47.5 °F 29.88 in South 1.0 mph 4.0 mph 87% 0.05 in 35.00 W/m2
07:30 51.2 °F 47.5 °F 29.88 in Calm     87% 0.05 in 56.00 W/m2
07:35 51.3 °F 47.6 °F 29.88 in South 2.0 mph 2.0 mph 87% 0.05 in 69.00 W/m2
07:40 51.3 °F 47.6 °F 29.88 in Calm   4.0 mph 87% 0.05 in 72.00 W/m2
07:45 51.4 °F 47.7 °F 29.88 in Calm     87% 0.04 in 63.00 W/m2
07:50 51.5 °F 47.8 °F 29.88 in Calm     87% 0.04 in 67.00 W/m2
07:55 51.5 °F 47.8 °F 29.88 in Calm     87% 0.04 in 91.00 W/m2
08:00 51.6 °F 47.9 °F 29.88 in Calm     87% 0.04 in 107.00 W/m2
08:05 51.7 °F 48.0 °F 29.88 in South 1.0 mph 4.0 mph 87% 0.00 in 83.00 W/m2
08:10 51.7 °F 48.0 °F 29.89 in Calm   2.0 mph 87% 0.00 in 62.00 W/m2
08:15 51.8 °F 48.1 °F 29.89 in Calm   4.0 mph 87% 0.00 in 65.00 W/m2
08:20 51.9 °F 48.2 °F 29.89 in Calm   2.0 mph 87% 0.00 in 70.00 W/m2
08:25 51.9 °F 48.2 °F 29.89 in SSE 4.0 mph 6.0 mph 87% 0.04 in 51.00 W/m2
08:30 52.0 °F 48.3 °F 29.89 in SSE 2.0 mph 8.0 mph 87% 0.04 in 72.00 W/m2
08:35 52.0 °F 48.3 °F 29.89 in SSE 2.0 mph 9.0 mph 87% 0.04 in 111.00 W/m2
08:40 52.1 °F 48.7 °F 29.89 in SSE 1.0 mph 6.0 mph 88% 0.00 in 148.00 W/m2
08:45 52.1 °F 48.7 °F 29.90 in SSE 2.0 mph 7.0 mph 88% 0.00 in 172.00 W/m2
08:50 52.2 °F 48.5 °F 29.90 in SSE 4.0 mph 8.0 mph 87% 0.00 in 169.00 W/m2
08:55 52.4 °F 48.7 °F 29.90 in SE 5.0 mph 11.0 mph 87% 0.00 in 193.00 W/m2
09:00 52.5 °F 48.8 °F 29.90 in ESE 1.0 mph 9.0 mph 87% 0.00 in 186.00 W/m2
09:05 52.6 °F 48.8 °F 29.90 in ESE 4.0 mph 8.0 mph 87% 0.00 in 200.00 W/m2
09:10 52.7 °F 49.0 °F 29.90 in Calm   11.0 mph 87% 0.00 in 176.00 W/m2
09:16 52.8 °F 49.0 °F 29.90 in ESE 6.0 mph 8.0 mph 87% 0.00 in 141.00 W/m2
09:21 52.9 °F 49.1 °F 29.90 in ESE 1.0 mph 11.0 mph 87% 0.00 in 202.00 W/m2
09:26 53.0 °F 49.2 °F 29.90 in ESE 1.0 mph 1.0 mph 87% 0.00 in 309.00 W/m2
09:31 53.2 °F 49.4 °F 29.90 in Calm     87% 0.00 in 338.00 W/m2
09:36 53.4 °F 49.6 °F 29.90 in ESE 6.0 mph 6.0 mph 87% 0.00 in 197.00 W/m2
09:41 53.6 °F 49.8 °F 29.90 in ESE 2.0 mph 2.0 mph 87% 0.00 in 204.00 W/m2
09:46 53.9 °F 50.1 °F 29.90 in ESE 1.0 mph 5.0 mph 87% 0.00 in 260.00 W/m2
09:51 54.1 °F 50.3 °F 29.90 in ESE 4.0 mph 5.0 mph 87% 0.00 in 288.00 W/m2
09:56 54.3 °F 50.5 °F 29.90 in ESE 4.0 mph 9.0 mph 87% 0.00 in 229.00 W/m2
10:01 54.5 °F 50.7 °F 29.90 in Calm     87% 0.00 in 234.00 W/m2
10:06 54.7 °F 50.9 °F 29.90 in ESE 2.0 mph 5.0 mph 87% 0.00 in 244.00 W/m2
10:11 54.8 °F 51.0 °F 29.91 in ESE 5.0 mph 8.0 mph 87% 0.00 in 253.00 W/m2
10:16 55.0 °F 51.2 °F 29.91 in Calm   4.0 mph 87% 0.00 in 260.00 W/m2
10:21 55.2 °F 51.4 °F 29.90 in ESE 4.0 mph 5.0 mph 87% 0.00 in 376.00 W/m2
10:26 55.3 °F 51.5 °F 29.91 in Calm   2.0 mph 87% 0.00 in 466.00 W/m2
10:31 55.6 °F 51.8 °F 29.91 in Calm     87% 0.00 in 529.00 W/m2
10:36 55.8 °F 52.0 °F 29.91 in Calm     87% 0.00 in 638.00 W/m2
10:41 56.1 °F 52.3 °F 29.91 in ESE 5.0 mph 7.0 mph 87% 0.00 in 654.00 W/m2
10:46 56.3 °F 52.5 °F 29.91 in ESE 4.0 mph 5.0 mph 87% 0.00 in 568.00 W/m2
10:51 56.5 °F 53.0 °F 29.91 in SE 5.0 mph 5.0 mph 88% 0.00 in 536.00 W/m2
10:56 56.6 °F 53.1 °F 29.91 in Calm   5.0 mph 88% 0.00 in 413.00 W/m2
11:01 56.7 °F 53.2 °F 29.91 in Calm     88% 0.00 in 446.00 W/m2
11:06 56.9 °F 53.4 °F 29.91 in SE 1.0 mph 1.0 mph 88% 0.00 in 1005.00 W/m2
11:11 57.3 °F 53.5 °F 29.91 in SE 5.0 mph 6.0 mph 87% 0.00 in 1067.00 W/m2
11:16 57.7 °F 53.9 °F 29.91 in Calm   6.0 mph 87% 0.00 in 960.00 W/m2
11:21 58.0 °F 54.5 °F 29.91 in Calm     88% 0.00 in 345.00 W/m2
11:26 58.2 °F 54.7 °F 29.92 in South 9.0 mph 9.0 mph 88% 0.00 in 369.00 W/m2
11:31 58.4 °F 54.9 °F 29.92 in South 5.0 mph 5.0 mph 88% 0.00 in 322.00 W/m2
11:36 58.6 °F 55.1 °F 29.92 in South 2.0 mph 6.0 mph 88% 0.00 in 462.00 W/m2
11:41 58.9 °F 55.4 °F 29.92 in South 4.0 mph 5.0 mph 88% 0.00 in 547.00 W/m2
11:46 59.1 °F 55.5 °F 29.92 in Calm     88% 0.00 in 434.00 W/m2
11:51 59.4 °F 55.8 °F 29.92 in Calm     88% 0.00 in 253.00 W/m2
11:52 59.4 °F 55.8 °F 29.92 in Calm     88% 0.00 in 244.00 W/m2
11:57 59.2 °F 55.3 °F 29.92 in Calm   5.0 mph 87% 0.00 in 262.00 W/m2
12:03 59.3 °F 55.4 °F 29.92 in Calm     87% 0.00 in 288.00 W/m2
12:08 59.4 °F 55.5 °F 29.92 in Calm     87% 0.00 in 455.00 W/m2
12:13 59.3 °F 55.4 °F 29.92 in Calm     87% 0.00 in 250.00 W/m2
12:18 59.3 °F 55.4 °F 29.92 in Calm     87% 0.00 in 206.00 W/m2
12:23 59.2 °F 55.3 °F 29.92 in Calm     87% 0.00 in 285.00 W/m2
12:28 59.3 °F 55.4 °F 29.92 in Calm     87% 0.00 in 311.00 W/m2
12:33 59.4 °F 55.5 °F 29.92 in Calm   1.0 mph 87% 0.00 in 420.00 W/m2
12:38 59.6 °F 55.7 °F 29.92 in Calm     87% 0.00 in 255.00 W/m2
12:43 59.6 °F 55.4 °F 29.92 in Calm     86% 0.00 in 229.00 W/m2
12:48 59.7 °F 55.8 °F 29.92 in Calm     87% 0.00 in 445.00 W/m2
12:53 59.8 °F 55.9 °F 29.92 in Calm     87% 0.00 in 230.00 W/m2
12:58 59.7 °F 55.8 °F 29.92 in Calm     87% 0.00 in 190.00 W/m2
13:03 59.8 °F 55.9 °F 29.92 in Calm     87% 0.00 in 163.00 W/m2
13:08 59.7 °F 55.8 °F 29.92 in Calm     87% 0.00 in 239.00 W/m2
13:13 59.7 °F 55.8 °F 29.92 in Calm     87% 0.00 in 490.00 W/m2
13:18 59.8 °F 55.9 °F 29.92 in Calm     87% 0.00 in 831.00 W/m2
13:23 60.0 °F 56.1 °F 29.92 in Calm   1.0 mph 87% 0.00 in 378.00 W/m2
13:28 60.4 °F 56.2 °F 29.92 in Calm   1.0 mph 86% 0.00 in 473.00 W/m2
13:33 60.8 °F 56.6 °F 29.92 in Calm   2.0 mph 86% 0.00 in 863.00 W/m2
13:38 61.2 °F 57.0 °F 29.92 in SW 3.0 mph 3.0 mph 86% 0.00 in 863.00 W/m2
13:43 61.6 °F 57.4 °F 29.92 in Calm   5.0 mph 86% 0.00 in 527.00 W/m2
13:48 61.7 °F 56.8 °F 29.92 in SW 8.0 mph 8.0 mph 84% 0.00 in 547.00 W/m2
13:53 62.1 °F 57.2 °F 29.92 in Calm   1.0 mph 84% 0.00 in 578.00 W/m2
13:58 62.5 °F 57.3 °F 29.91 in Calm   5.0 mph 83% 0.00 in 1281.00 W/m2
14:03 62.6 °F 57.0 °F 29.92 in Calm   7.0 mph 82% 0.00 in 362.00 W/m2
14:08 62.7 °F 57.1 °F 29.92 in SW 1.0 mph 1.0 mph 82% 0.00 in 886.00 W/m2
14:13 62.9 °F 56.6 °F 29.91 in Calm   9.0 mph 80% 0.00 in 329.00 W/m2
14:18 63.1 °F 57.2 °F 29.91 in Calm   10.0 mph 81% 0.00 in 1202.00 W/m2
14:23 63.2 °F 56.6 °F 29.91 in Calm   8.0 mph 79% 0.00 in 366.00 W/m2
14:28 63.5 °F 56.9 °F 29.92 in SW 1.0 mph 9.0 mph 79% 0.00 in 353.00 W/m2
14:33 63.5 °F 56.5 °F 29.92 in Calm   1.0 mph 78% 0.00 in 311.00 W/m2
14:38 63.5 °F 56.9 °F 29.92 in Calm     79% 0.00 in 339.00 W/m2
14:43 63.6 °F 56.3 °F 29.92 in Calm   6.0 mph 77% 0.00 in 403.00 W/m2
14:48 63.6 °F 57.0 °F 29.92 in Calm   3.0 mph 79% 0.00 in 1178.00 W/m2
14:53 63.7 °F 57.1 °F 29.92 in Calm   7.0 mph 79% 0.00 in 413.00 W/m2
14:58 64.0 °F 56.7 °F 29.92 in Calm   8.0 mph 77% 0.00 in 1204.00 W/m2
15:03 64.2 °F 56.8 °F 29.92 in Calm   1.0 mph 77% 0.00 in 281.00 W/m2
15:08 64.3 °F 56.6 °F 29.92 in SW 8.0 mph 9.0 mph 76% 0.00 in 306.00 W/m2
15:10 64.3 °F 56.6 °F 29.92 in SW 4.0 mph 9.0 mph 76% 0.00 in 468.00 W/m2
15:15 64.3 °F 56.6 °F 29.92 in West 3.0 mph 7.0 mph 76% 0.00 in 306.00 W/m2
15:20 64.5 °F 57.1 °F 29.92 in West 3.0 mph 12.0 mph 77% 0.00 in 422.00 W/m2
15:25 64.7 °F 56.2 °F 29.92 in SW 5.0 mph 10.0 mph 74% 0.00 in 1114.00 W/m2
15:35 65.2 °F 56.3 °F 29.92 in Calm   5.0 mph 73% 0.00 in 1028.00 W/m2
15:40 65.4 °F 56.5 °F 29.92 in West 1.0 mph 5.0 mph 73% 0.00 in 963.00 W/m2
15:45 65.6 °F 56.0 °F 29.91 in WSW 2.0 mph 6.0 mph 71% 0.00 in 255.00 W/m2
15:50 65.6 °F 56.7 °F 29.91 in Calm   5.0 mph 73% 0.00 in 933.00 W/m2
15:55 65.5 °F 57.4 °F 29.91 in Calm   6.0 mph 75% 0.00 in 972.00 W/m2
16:00 65.4 °F 57.3 °F 29.91 in WSW 2.0 mph 6.0 mph 75% 0.00 in 244.00 W/m2
16:05 65.3 °F 56.0 °F 29.91 in Calm   6.0 mph 72% 0.00 in 234.00 W/m2
16:10 65.3 °F 56.8 °F 29.92 in Calm   3.0 mph 74% 0.00 in 185.00 W/m2
16:15 65.1 °F 56.6 °F 29.91 in Calm   4.0 mph 74% 0.00 in 202.00 W/m2
16:20 65.0 °F 56.9 °F 29.91 in Calm   4.0 mph 75% 0.00 in 320.00 W/m2
16:25 64.9 °F 56.4 °F 29.91 in Calm   6.0 mph 74% 0.00 in 823.00 W/m2
16:30 64.8 °F 56.0 °F 29.91 in West 3.0 mph 4.0 mph 73% 0.00 in 225.00 W/m2
16:35 64.7 °F 55.9 °F 29.91 in Calm   5.0 mph 73% 0.00 in 169.00 W/m2
16:40 64.6 °F 55.8 °F 29.91 in Calm   3.0 mph 73% 0.00 in 272.00 W/m2
16:45 64.5 °F 56.4 °F 29.91 in Calm   4.0 mph 75% 0.00 in 812.00 W/m2
16:50 64.6 °F 56.5 °F 29.91 in WSW 2.0 mph 8.0 mph 75% 0.00 in 816.00 W/m2
16:55 64.7 °F 55.5 °F 29.91 in WSW 5.0 mph 7.0 mph 72% 0.00 in 729.00 W/m2
17:00 65.0 °F 55.8 °F 29.91 in Calm   7.0 mph 72% 0.00 in 738.00 W/m2
17:05 65.4 °F 56.5 °F 29.91 in Calm   5.0 mph 73% 0.00 in 708.00 W/m2
17:10 65.6 °F 56.3 °F 29.91 in Calm   1.0 mph 72% 0.00 in 214.00 W/m2
17:15 65.5 °F 56.2 °F 29.91 in Calm   1.0 mph 72% 0.00 in 172.00 W/m2
17:20 65.4 °F 56.5 °F 29.91 in Calm     73% 0.00 in 179.00 W/m2
17:25 65.2 °F 56.7 °F 29.91 in Calm     74% 0.00 in 197.00 W/m2
17:30 65.0 °F 56.5 °F 29.91 in WSW 2.0 mph 5.0 mph 74% 0.00 in 594.00 W/m2
17:35 64.8 °F 56.0 °F 29.91 in Calm   4.0 mph 73% 0.00 in 195.00 W/m2
17:40 64.8 °F 56.0 °F 29.91 in West 6.0 mph 9.0 mph 73% 0.00 in 566.00 W/m2
17:45 64.9 °F 55.7 °F 29.91 in Calm   7.0 mph 72% 0.00 in 200.00 W/m2
17:50 65.0 °F 55.8 °F 29.91 in Calm   6.0 mph 72% 0.00 in 563.00 W/m2
17:55 65.2 °F 56.0 °F 29.91 in SW 1.0 mph 8.0 mph 72% 0.00 in 554.00 W/m2
18:01 65.3 °F 55.7 °F 29.90 in Calm   8.0 mph 71% 0.00 in 197.00 W/m2
18:06 65.3 °F 55.3 °F 29.90 in SW 1.0 mph 8.0 mph 70% 0.00 in 211.00 W/m2
18:11 65.3 °F 55.7 °F 29.91 in Calm     71% 0.00 in 418.00 W/m2
18:16 65.2 °F 55.6 °F 29.90 in Calm   6.0 mph 71% 0.00 in 388.00 W/m2
18:21 65.1 °F 55.1 °F 29.91 in Calm     70% 0.00 in 394.00 W/m2
18:26 65.0 °F 55.8 °F 29.91 in Calm     72% 0.00 in 151.00 W/m2
18:31 65.0 °F 55.8 °F 29.91 in Calm     72% 0.00 in 366.00 W/m2
18:36 65.0 °F 55.4 °F 29.91 in Calm   1.0 mph 71% 0.00 in 343.00 W/m2
18:41 65.0 °F 55.4 °F 29.91 in Calm     71% 0.00 in 125.00 W/m2
18:46 65.0 °F 55.4 °F 29.91 in Calm     71% 0.00 in 244.00 W/m2
18:51 65.0 °F 55.8 °F 29.91 in Calm     72% 0.00 in 239.00 W/m2
18:56 65.0 °F 56.2 °F 29.91 in Calm     73% 0.00 in 214.00 W/m2
19:01 65.0 °F 56.5 °F 29.91 in Calm     74% 0.00 in 192.00 W/m2
19:06 64.9 °F 56.4 °F 29.91 in Calm     74% 0.00 in 172.00 W/m2
19:11 64.9 °F 56.8 °F 29.91 in Calm     75% 0.00 in 153.00 W/m2
19:16 64.8 °F 56.3 °F 29.91 in Calm     74% 0.00 in 130.00 W/m2
19:21 64.7 °F 56.6 °F 29.91 in Calm     75% 0.00 in 104.00 W/m2
19:26 64.5 °F 56.8 °F 29.91 in Calm     76% 0.00 in 86.00 W/m2
19:31 64.4 °F 56.7 °F 29.90 in Calm     76% 0.00 in 70.00 W/m2
19:36 64.2 °F 56.5 °F 29.90 in Calm     76% 0.00 in 54.00 W/m2
19:41 64.1 °F 56.4 °F 29.91 in Calm     76% 0.00 in 44.00 W/m2
19:46 63.9 °F 56.2 °F 29.91 in Calm     76% 0.00 in 33.00 W/m2
19:51 63.7 °F 56.0 °F 29.91 in Calm     76% 0.00 in 28.00 W/m2
19:56 63.6 °F 55.9 °F 29.91 in Calm     76% 0.00 in 21.00 W/m2
20:01 63.4 °F 55.7 °F 29.91 in Calm     76% 0.00 in 18.00 W/m2
20:06 63.2 °F 55.5 °F 29.91 in Calm     76% 0.00 in 14.00 W/m2
20:11 63.0 °F 55.7 °F 29.91 in Calm     77% 0.00 in 12.00 W/m2
20:16 62.8 °F 55.5 °F 29.91 in Calm     77% 0.00 in 9.00 W/m2
20:21 62.6 °F 55.7 °F 29.91 in Calm     78% 0.00 in 5.00 W/m2
20:26 62.3 °F 55.4 °F 29.91 in Calm     78% 0.00 in 0.00 W/m2
20:31 62.1 °F 55.2 °F 29.91 in Calm     78% 0.00 in 0.00 W/m2
20:36 61.8 °F 55.2 °F 29.91 in Calm     79% 0.00 in 0.00 W/m2
20:41 61.5 °F 54.9 °F 29.91 in Calm     79% 0.00 in 0.00 W/m2
20:46 61.2 °F 54.6 °F 29.91 in West 2.0 mph 2.0 mph 79% 0.00 in 0.00 W/m2
20:51 60.9 °F 54.3 °F 29.91 in West 3.0 mph 3.0 mph 79% 0.00 in 0.00 W/m2
20:56 60.7 °F 54.5 °F 29.92 in Calm   3.0 mph 80% 0.00 in 0.00 W/m2
21:01 60.4 °F 54.2 °F 29.92 in Calm   2.0 mph 80% 0.00 in 0.00 W/m2
21:06 60.1 °F 54.3 °F 29.91 in Calm     81% 0.00 in 0.00 W/m2
21:11 59.9 °F 54.1 °F 29.92 in Calm     81% 0.00 in 0.00 W/m2
21:16 59.7 °F 53.9 °F 29.92 in Calm     81% 0.00 in 0.00 W/m2
21:21 59.5 °F 54.0 °F 29.92 in Calm     82% 0.00 in 0.00 W/m2
21:26 59.3 °F 53.8 °F 29.93 in Calm     82% 0.00 in 0.00 W/m2
21:31 59.1 °F 53.6 °F 29.93 in Calm     82% 0.00 in 0.00 W/m2
21:36 59.0 °F 53.5 °F 29.93 in Calm     82% 0.00 in 0.00 W/m2
21:41 59.0 °F 53.5 °F 29.93 in Calm     82% 0.00 in 0.00 W/m2
21:46 58.9 °F 53.4 °F 29.93 in Calm     82% 0.00 in 0.00 W/m2
21:51 58.9 °F 53.8 °F 29.93 in Calm     83% 0.00 in 0.00 W/m2
21:56 58.9 °F 53.8 °F 29.93 in Calm     83% 0.00 in 0.00 W/m2
22:02 58.8 °F 53.7 °F 29.93 in Calm     83% 0.00 in 0.00 W/m2
22:07 58.7 °F 53.6 °F 29.93 in Calm     83% 0.00 in 0.00 W/m2
22:12 58.6 °F 53.5 °F 29.93 in Calm     83% 0.00 in 0.00 W/m2
22:17 58.5 °F 53.0 °F 29.93 in Calm     82% 0.00 in 0.00 W/m2
22:22 58.4 °F 52.9 °F 29.93 in Calm     82% 0.00 in 0.00 W/m2
22:27 58.4 °F 52.9 °F 29.93 in Calm     82% 0.00 in 0.00 W/m2
22:32 58.2 °F 53.1 °F 29.93 in Calm     83% 0.00 in 0.00 W/m2
22:37 58.2 °F 53.1 °F 29.93 in WSW 1.0 mph 4.0 mph 83% 0.00 in 0.00 W/m2
22:42 58.1 °F 53.0 °F 29.93 in Calm     83% 0.00 in 0.00 W/m2
22:47 58.0 °F 52.9 °F 29.93 in Calm     83% 0.00 in 0.00 W/m2
22:52 57.9 °F 52.8 °F 29.93 in Calm     83% 0.00 in 0.00 W/m2
22:57 57.9 °F 52.8 °F 29.93 in Calm     83% 0.00 in 0.00 W/m2
23:02 57.9 °F 53.1 °F 29.93 in Calm   1.0 mph 84% 0.00 in 0.00 W/m2
23:07 57.8 °F 53.0 °F 29.92 in Calm   3.0 mph 84% 0.00 in 0.00 W/m2
23:12 57.8 °F 53.0 °F 29.92 in Calm   2.0 mph 84% 0.00 in 0.00 W/m2
23:17 57.7 °F 53.2 °F 29.92 in Calm     85% 0.00 in 0.00 W/m2
23:22 57.7 °F 53.2 °F 29.93 in Calm     85% 0.00 in 0.00 W/m2
23:27 57.6 °F 53.1 °F 29.92 in Calm   4.0 mph 85% 0.00 in 0.00 W/m2
23:32 57.5 °F 53.0 °F 29.92 in Calm   3.0 mph 85% 0.00 in 0.00 W/m2
23:38 57.5 °F 53.3 °F 29.92 in SSW 1.0 mph 4.0 mph 86% 0.00 in 0.00 W/m2
23:43 57.4 °F 53.2 °F 29.92 in Calm     86% 0.00 in 0.00 W/m2
23:48 57.4 °F 53.2 °F 29.92 in Calm     86% 0.00 in 0.00 W/m2
23:53 57.3 °F 53.2 °F 29.92 in Calm   1.0 mph 86% 0.00 in 0.00 W/m2
23:58 57.3 °F 53.2 °F 29.92 in Calm   3.0 mph 86% 0.00 in 0.00 W/m2
Foresthill Weather
 WU-history PHP script courtesy of   Juneau County Weather.
powered by Cumulus v1.9.3 (1059)
Ambient Weather VWS v14.00
Top Contact Website Map Copyright © 2007 - 2018 Foresthillweather.com Never base important decisions on this or any weather information obtained from the Internet